sensor_id;sensor_type;location;lat;lon;timestamp;temperature;humidity
12622;DHT22;6376;48.182;-1.644;2024-02-14T00:00:10;14.30;95.80
12622;DHT22;6376;48.182;-1.644;2024-02-14T00:02:46;14.30;95.40
12622;DHT22;6376;48.182;-1.644;2024-02-14T00:05:14;14.30;95.50
12622;DHT22;6376;48.182;-1.644;2024-02-14T00:07:40;14.30;95.40
12622;DHT22;6376;48.182;-1.644;2024-02-14T00:10:06;14.20;95.40
12622;DHT22;6376;48.182;-1.644;2024-02-14T00:12:33;14.20;95.50
12622;DHT22;6376;48.182;-1.644;2024-02-14T00:14:59;14.20;95.50
12622;DHT22;6376;48.182;-1.644;2024-02-14T00:17:24;14.20;95.50
12622;DHT22;6376;48.182;-1.644;2024-02-14T00:19:50;14.20;95.50
12622;DHT22;6376;48.182;-1.644;2024-02-14T00:22:16;14.20;95.40
12622;DHT22;6376;48.182;-1.644;2024-02-14T00:24:42;14.20;95.50
12622;DHT22;6376;48.182;-1.644;2024-02-14T00:27:08;14.20;95.40
12622;DHT22;6376;48.182;-1.644;2024-02-14T00:29:34;14.20;95.30
12622;DHT22;6376;48.182;-1.644;2024-02-14T00:32:00;14.20;95.40
12622;DHT22;6376;48.182;-1.644;2024-02-14T00:34:26;14.10;95.50
12622;DHT22;6376;48.182;-1.644;2024-02-14T00:36:52;14.10;95.50
12622;DHT22;6376;48.182;-1.644;2024-02-14T00:39:18;14.10;95.50
12622;DHT22;6376;48.182;-1.644;2024-02-14T00:44:10;14.10;95.50
12622;DHT22;6376;48.182;-1.644;2024-02-14T00:46:36;14.10;95.40
12622;DHT22;6376;48.182;-1.644;2024-02-14T00:49:01;14.10;95.50
12622;DHT22;6376;48.182;-1.644;2024-02-14T00:51:27;14.10;95.40
12622;DHT22;6376;48.182;-1.644;2024-02-14T00:53:53;14.10;95.50
12622;DHT22;6376;48.182;-1.644;2024-02-14T00:56:19;14.10;95.40
12622;DHT22;6376;48.182;-1.644;2024-02-14T00:58:44;14.10;95.60
12622;DHT22;6376;48.182;-1.644;2024-02-14T01:01:10;14.10;95.50
12622;DHT22;6376;48.182;-1.644;2024-02-14T01:03:37;14.10;95.50
12622;DHT22;6376;48.182;-1.644;2024-02-14T01:06:03;14.10;95.60
12622;DHT22;6376;48.182;-1.644;2024-02-14T01:08:29;14.10;95.50
12622;DHT22;6376;48.182;-1.644;2024-02-14T01:10:54;14.00;95.60
12622;DHT22;6376;48.182;-1.644;2024-02-14T01:13:20;14.00;95.50
12622;DHT22;6376;48.182;-1.644;2024-02-14T01:15:46;14.00;95.60
12622;DHT22;6376;48.182;-1.644;2024-02-14T01:18:11;14.00;95.50
12622;DHT22;6376;48.182;-1.644;2024-02-14T01:20:37;14.00;95.50
12622;DHT22;6376;48.182;-1.644;2024-02-14T01:23:03;14.00;95.60
12622;DHT22;6376;48.182;-1.644;2024-02-14T01:25:29;14.00;95.50
12622;DHT22;6376;48.182;-1.644;2024-02-14T01:27:54;14.00;95.50
12622;DHT22;6376;48.182;-1.644;2024-02-14T01:30:20;14.00;95.70
12622;DHT22;6376;48.182;-1.644;2024-02-14T01:32:46;14.00;95.60
12622;DHT22;6376;48.182;-1.644;2024-02-14T01:35:12;14.00;95.60
12622;DHT22;6376;48.182;-1.644;2024-02-14T01:37:38;14.00;95.60
12622;DHT22;6376;48.182;-1.644;2024-02-14T01:40:05;14.00;95.60
12622;DHT22;6376;48.182;-1.644;2024-02-14T01:42:32;14.00;95.70
12622;DHT22;6376;48.182;-1.644;2024-02-14T01:44:58;14.00;95.60
12622;DHT22;6376;48.182;-1.644;2024-02-14T01:47:24;14.00;95.60
12622;DHT22;6376;48.182;-1.644;2024-02-14T01:49:50;14.00;95.60
12622;DHT22;6376;48.182;-1.644;2024-02-14T01:52:15;13.90;95.60
12622;DHT22;6376;48.182;-1.644;2024-02-14T01:54:41;13.90;95.60
12622;DHT22;6376;48.182;-1.644;2024-02-14T01:57:08;13.90;95.70
12622;DHT22;6376;48.182;-1.644;2024-02-14T01:59:35;13.90;95.60
12622;DHT22;6376;48.182;-1.644;2024-02-14T02:02:01;13.90;95.70
12622;DHT22;6376;48.182;-1.644;2024-02-14T02:04:27;13.90;95.60
12622;DHT22;6376;48.182;-1.644;2024-02-14T02:06:53;13.90;95.60
12622;DHT22;6376;48.182;-1.644;2024-02-14T02:09:22;13.90;95.70
12622;DHT22;6376;48.182;-1.644;2024-02-14T02:11:49;13.90;95.60
12622;DHT22;6376;48.182;-1.644;2024-02-14T02:14:15;13.90;95.70
12622;DHT22;6376;48.182;-1.644;2024-02-14T02:16:42;13.90;95.70
12622;DHT22;6376;48.182;-1.644;2024-02-14T02:19:08;13.90;95.70
12622;DHT22;6376;48.182;-1.644;2024-02-14T02:21:37;13.90;95.60
12622;DHT22;6376;48.182;-1.644;2024-02-14T02:24:04;13.90;95.70
12622;DHT22;6376;48.182;-1.644;2024-02-14T02:26:29;13.90;95.80
12622;DHT22;6376;48.182;-1.644;2024-02-14T02:28:55;13.90;95.80
12622;DHT22;6376;48.182;-1.644;2024-02-14T02:31:20;13.90;95.60
12622;DHT22;6376;48.182;-1.644;2024-02-14T02:33:46;13.90;95.60
12622;DHT22;6376;48.182;-1.644;2024-02-14T02:36:12;13.90;95.60
12622;DHT22;6376;48.182;-1.644;2024-02-14T02:38:38;13.90;95.70
12622;DHT22;6376;48.182;-1.644;2024-02-14T02:41:04;13.90;95.70
12622;DHT22;6376;48.182;-1.644;2024-02-14T02:43:34;13.90;95.70
12622;DHT22;6376;48.182;-1.644;2024-02-14T02:46:00;13.90;95.80
12622;DHT22;6376;48.182;-1.644;2024-02-14T02:48:25;13.90;95.70
12622;DHT22;6376;48.182;-1.644;2024-02-14T02:50:51;13.80;95.60
12622;DHT22;6376;48.182;-1.644;2024-02-14T02:53:18;13.80;95.70
12622;DHT22;6376;48.182;-1.644;2024-02-14T02:55:44;13.90;95.80
12622;DHT22;6376;48.182;-1.644;2024-02-14T02:58:10;13.80;95.60
12622;DHT22;6376;48.182;-1.644;2024-02-14T03:00:36;13.80;95.80
12622;DHT22;6376;48.182;-1.644;2024-02-14T03:03:02;13.90;95.80
12622;DHT22;6376;48.182;-1.644;2024-02-14T03:05:30;13.80;95.70
12622;DHT22;6376;48.182;-1.644;2024-02-14T03:07:59;13.90;95.80
12622;DHT22;6376;48.182;-1.644;2024-02-14T03:10:25;13.80;95.80
12622;DHT22;6376;48.182;-1.644;2024-02-14T03:12:51;13.80;95.70
12622;DHT22;6376;48.182;-1.644;2024-02-14T03:15:18;13.80;95.70
12622;DHT22;6376;48.182;-1.644;2024-02-14T03:17:44;13.80;95.70
12622;DHT22;6376;48.182;-1.644;2024-02-14T03:20:13;13.80;95.80
12622;DHT22;6376;48.182;-1.644;2024-02-14T03:22:42;13.80;95.80
12622;DHT22;6376;48.182;-1.644;2024-02-14T03:25:16;13.80;95.70
12622;DHT22;6376;48.182;-1.644;2024-02-14T03:27:42;13.80;95.70
12622;DHT22;6376;48.182;-1.644;2024-02-14T03:30:08;13.80;95.80
12622;DHT22;6376;48.182;-1.644;2024-02-14T03:32:33;13.80;95.80
12622;DHT22;6376;48.182;-1.644;2024-02-14T03:34:59;13.80;95.70
12622;DHT22;6376;48.182;-1.644;2024-02-14T03:37:26;13.80;95.90
12622;DHT22;6376;48.182;-1.644;2024-02-14T03:39:52;13.80;95.80
12622;DHT22;6376;48.182;-1.644;2024-02-14T03:42:18;13.80;95.70
12622;DHT22;6376;48.182;-1.644;2024-02-14T03:44:45;13.80;95.80
12622;DHT22;6376;48.182;-1.644;2024-02-14T03:47:11;13.80;95.80
12622;DHT22;6376;48.182;-1.644;2024-02-14T03:49:38;13.80;95.80
12622;DHT22;6376;48.182;-1.644;2024-02-14T03:52:04;13.80;95.80
12622;DHT22;6376;48.182;-1.644;2024-02-14T03:54:38;13.80;95.80
12622;DHT22;6376;48.182;-1.644;2024-02-14T03:57:04;13.80;95.80
12622;DHT22;6376;48.182;-1.644;2024-02-14T03:59:32;13.80;95.80
12622;DHT22;6376;48.182;-1.644;2024-02-14T04:02:00;13.80;95.80
12622;DHT22;6376;48.182;-1.644;2024-02-14T04:04:26;13.80;96.00
12622;DHT22;6376;48.182;-1.644;2024-02-14T04:06:51;13.80;95.90
12622;DHT22;6376;48.182;-1.644;2024-02-14T04:09:17;13.80;95.90
12622;DHT22;6376;48.182;-1.644;2024-02-14T04:11:43;13.80;96.00
12622;DHT22;6376;48.182;-1.644;2024-02-14T04:14:09;13.80;95.90
12622;DHT22;6376;48.182;-1.644;2024-02-14T04:16:34;13.80;95.90
12622;DHT22;6376;48.182;-1.644;2024-02-14T04:19:02;13.80;95.90
12622;DHT22;6376;48.182;-1.644;2024-02-14T04:21:28;13.80;95.90
12622;DHT22;6376;48.182;-1.644;2024-02-14T04:23:53;13.80;96.00
12622;DHT22;6376;48.182;-1.644;2024-02-14T04:26:20;13.70;95.90
12622;DHT22;6376;48.182;-1.644;2024-02-14T04:28:46;13.70;95.80
12622;DHT22;6376;48.182;-1.644;2024-02-14T04:31:12;13.70;95.80
12622;DHT22;6376;48.182;-1.644;2024-02-14T04:33:37;13.80;95.80
12622;DHT22;6376;48.182;-1.644;2024-02-14T04:36:03;13.70;95.80
12622;DHT22;6376;48.182;-1.644;2024-02-14T04:38:30;13.80;95.90
12622;DHT22;6376;48.182;-1.644;2024-02-14T04:40:56;13.70;95.80
12622;DHT22;6376;48.182;-1.644;2024-02-14T04:43:24;13.70;95.90
12622;DHT22;6376;48.182;-1.644;2024-02-14T04:45:49;13.70;95.90
12622;DHT22;6376;48.182;-1.644;2024-02-14T04:48:16;13.70;95.80
12622;DHT22;6376;48.182;-1.644;2024-02-14T04:50:41;13.70;95.70
12622;DHT22;6376;48.182;-1.644;2024-02-14T04:53:07;13.70;95.90
12622;DHT22;6376;48.182;-1.644;2024-02-14T04:55:33;13.70;96.20
12622;DHT22;6376;48.182;-1.644;2024-02-14T04:57:59;13.70;95.90
12622;DHT22;6376;48.182;-1.644;2024-02-14T05:00:24;13.70;95.90
12622;DHT22;6376;48.182;-1.644;2024-02-14T05:02:50;13.70;95.90
12622;DHT22;6376;48.182;-1.644;2024-02-14T05:05:16;13.70;96.10
12622;DHT22;6376;48.182;-1.644;2024-02-14T05:07:42;13.70;96.00
12622;DHT22;6376;48.182;-1.644;2024-02-14T05:10:08;13.70;96.10
12622;DHT22;6376;48.182;-1.644;2024-02-14T05:12:33;13.70;96.10
12622;DHT22;6376;48.182;-1.644;2024-02-14T05:14:59;13.70;95.90
12622;DHT22;6376;48.182;-1.644;2024-02-14T05:17:25;13.70;95.90
12622;DHT22;6376;48.182;-1.644;2024-02-14T05:19:50;13.70;96.00
12622;DHT22;6376;48.182;-1.644;2024-02-14T05:22:16;13.70;96.00
12622;DHT22;6376;48.182;-1.644;2024-02-14T05:24:42;13.70;95.90
12622;DHT22;6376;48.182;-1.644;2024-02-14T05:27:07;13.70;96.20
12622;DHT22;6376;48.182;-1.644;2024-02-14T05:29:33;13.70;96.10
12622;DHT22;6376;48.182;-1.644;2024-02-14T05:31:59;13.70;96.10
12622;DHT22;6376;48.182;-1.644;2024-02-14T05:34:24;13.70;96.10
12622;DHT22;6376;48.182;-1.644;2024-02-14T05:36:50;13.70;96.00
12622;DHT22;6376;48.182;-1.644;2024-02-14T05:39:17;13.70;96.20
12622;DHT22;6376;48.182;-1.644;2024-02-14T05:41:44;13.70;96.20
12622;DHT22;6376;48.182;-1.644;2024-02-14T05:44:10;13.70;96.30
12622;DHT22;6376;48.182;-1.644;2024-02-14T05:46:35;13.70;96.10
12622;DHT22;6376;48.182;-1.644;2024-02-14T05:49:01;13.70;96.20
12622;DHT22;6376;48.182;-1.644;2024-02-14T05:51:26;13.70;96.30
12622;DHT22;6376;48.182;-1.644;2024-02-14T05:53:52;13.70;96.10
12622;DHT22;6376;48.182;-1.644;2024-02-14T05:56:18;13.70;96.10
12622;DHT22;6376;48.182;-1.644;2024-02-14T05:58:43;13.70;96.10
12622;DHT22;6376;48.182;-1.644;2024-02-14T06:01:09;13.70;96.10
12622;DHT22;6376;48.182;-1.644;2024-02-14T06:03:35;13.70;96.10
12622;DHT22;6376;48.182;-1.644;2024-02-14T06:06:00;13.70;96.30
12622;DHT22;6376;48.182;-1.644;2024-02-14T06:08:26;13.70;96.20
12622;DHT22;6376;48.182;-1.644;2024-02-14T06:10:54;13.70;96.10
12622;DHT22;6376;48.182;-1.644;2024-02-14T06:13:20;13.70;96.20
12622;DHT22;6376;48.182;-1.644;2024-02-14T06:15:45;13.70;96.10
12622;DHT22;6376;48.182;-1.644;2024-02-14T06:18:11;13.70;96.10
12622;DHT22;6376;48.182;-1.644;2024-02-14T06:20:37;13.70;96.20
12622;DHT22;6376;48.182;-1.644;2024-02-14T06:23:04;13.70;96.20
12622;DHT22;6376;48.182;-1.644;2024-02-14T06:25:30;13.70;96.20
12622;DHT22;6376;48.182;-1.644;2024-02-14T06:27:55;13.70;96.10
12622;DHT22;6376;48.182;-1.644;2024-02-14T06:30:21;13.70;96.10
12622;DHT22;6376;48.182;-1.644;2024-02-14T06:32:47;13.70;96.10
12622;DHT22;6376;48.182;-1.644;2024-02-14T06:35:12;13.70;96.20
12622;DHT22;6376;48.182;-1.644;2024-02-14T06:37:40;13.70;96.10
12622;DHT22;6376;48.182;-1.644;2024-02-14T06:40:06;13.70;95.90
12622;DHT22;6376;48.182;-1.644;2024-02-14T06:42:34;13.70;96.00
12622;DHT22;6376;48.182;-1.644;2024-02-14T06:44:59;13.70;96.00
12622;DHT22;6376;48.182;-1.644;2024-02-14T06:47:25;13.70;96.00
12622;DHT22;6376;48.182;-1.644;2024-02-14T06:49:55;13.70;96.00
12622;DHT22;6376;48.182;-1.644;2024-02-14T06:52:21;13.70;96.20
12622;DHT22;6376;48.182;-1.644;2024-02-14T06:54:46;13.70;96.20
12622;DHT22;6376;48.182;-1.644;2024-02-14T06:57:13;13.70;96.10
12622;DHT22;6376;48.182;-1.644;2024-02-14T06:59:39;13.70;96.20
12622;DHT22;6376;48.182;-1.644;2024-02-14T07:02:05;13.70;96.10
12622;DHT22;6376;48.182;-1.644;2024-02-14T07:04:31;13.70;96.20
12622;DHT22;6376;48.182;-1.644;2024-02-14T07:06:57;13.70;96.00
12622;DHT22;6376;48.182;-1.644;2024-02-14T07:09:23;13.70;96.30
12622;DHT22;6376;48.182;-1.644;2024-02-14T07:11:50;13.70;96.20
12622;DHT22;6376;48.182;-1.644;2024-02-14T07:14:16;13.70;96.10
12622;DHT22;6376;48.182;-1.644;2024-02-14T07:16:42;13.70;96.10
12622;DHT22;6376;48.182;-1.644;2024-02-14T07:19:08;13.70;96.00
12622;DHT22;6376;48.182;-1.644;2024-02-14T07:21:33;13.70;96.20
12622;DHT22;6376;48.182;-1.644;2024-02-14T07:23:59;13.60;96.00
12622;DHT22;6376;48.182;-1.644;2024-02-14T07:26:25;13.70;96.10
12622;DHT22;6376;48.182;-1.644;2024-02-14T07:28:50;13.70;96.20
12622;DHT22;6376;48.182;-1.644;2024-02-14T07:31:17;13.60;96.00
12622;DHT22;6376;48.182;-1.644;2024-02-14T07:33:42;13.70;96.10
12622;DHT22;6376;48.182;-1.644;2024-02-14T07:36:09;13.70;96.10
12622;DHT22;6376;48.182;-1.644;2024-02-14T07:38:35;13.70;95.80
12622;DHT22;6376;48.182;-1.644;2024-02-14T07:41:00;13.70;95.90
12622;DHT22;6376;48.182;-1.644;2024-02-14T07:43:26;13.70;95.90
12622;DHT22;6376;48.182;-1.644;2024-02-14T07:45:52;13.70;96.10
12622;DHT22;6376;48.182;-1.644;2024-02-14T07:48:17;13.70;96.00
12622;DHT22;6376;48.182;-1.644;2024-02-14T07:50:43;13.70;96.00
12622;DHT22;6376;48.182;-1.644;2024-02-14T07:53:08;13.70;96.10
12622;DHT22;6376;48.182;-1.644;2024-02-14T07:55:34;13.70;95.90
12622;DHT22;6376;48.182;-1.644;2024-02-14T07:58:00;13.70;96.00
12622;DHT22;6376;48.182;-1.644;2024-02-14T08:00:25;13.70;95.90
12622;DHT22;6376;48.182;-1.644;2024-02-14T08:02:51;13.70;96.00
12622;DHT22;6376;48.182;-1.644;2024-02-14T08:05:17;13.70;95.90
12622;DHT22;6376;48.182;-1.644;2024-02-14T08:07:44;13.70;96.10
12622;DHT22;6376;48.182;-1.644;2024-02-14T08:10:11;13.70;96.00
12622;DHT22;6376;48.182;-1.644;2024-02-14T08:12:37;13.70;95.90
12622;DHT22;6376;48.182;-1.644;2024-02-14T08:15:03;13.80;95.90
12622;DHT22;6376;48.182;-1.644;2024-02-14T08:17:30;13.70;95.90
12622;DHT22;6376;48.182;-1.644;2024-02-14T08:19:56;13.70;95.90
12622;DHT22;6376;48.182;-1.644;2024-02-14T08:22:21;13.70;96.00
12622;DHT22;6376;48.182;-1.644;2024-02-14T08:24:47;13.70;96.10
12622;DHT22;6376;48.182;-1.644;2024-02-14T08:27:12;13.70;96.30
12622;DHT22;6376;48.182;-1.644;2024-02-14T08:29:38;13.70;96.00
12622;DHT22;6376;48.182;-1.644;2024-02-14T08:32:04;13.70;95.90
12622;DHT22;6376;48.182;-1.644;2024-02-14T08:34:30;13.70;95.90
12622;DHT22;6376;48.182;-1.644;2024-02-14T08:36:56;13.70;95.90
12622;DHT22;6376;48.182;-1.644;2024-02-14T08:39:22;13.70;95.90
12622;DHT22;6376;48.182;-1.644;2024-02-14T08:41:47;13.70;95.90
12622;DHT22;6376;48.182;-1.644;2024-02-14T08:44:13;13.70;95.80
12622;DHT22;6376;48.182;-1.644;2024-02-14T08:46:39;13.70;95.90
12622;DHT22;6376;48.182;-1.644;2024-02-14T08:49:07;13.80;95.90
12622;DHT22;6376;48.182;-1.644;2024-02-14T08:51:37;13.80;95.90
12622;DHT22;6376;48.182;-1.644;2024-02-14T08:54:06;13.80;95.90
12622;DHT22;6376;48.182;-1.644;2024-02-14T08:56:32;13.80;95.80
12622;DHT22;6376;48.182;-1.644;2024-02-14T08:59:02;13.80;95.70
12622;DHT22;6376;48.182;-1.644;2024-02-14T09:01:31;13.80;95.70
12622;DHT22;6376;48.182;-1.644;2024-02-14T09:03:57;13.90;95.50
12622;DHT22;6376;48.182;-1.644;2024-02-14T09:06:24;13.80;95.60
12622;DHT22;6376;48.182;-1.644;2024-02-14T09:08:51;13.90;95.80
12622;DHT22;6376;48.182;-1.644;2024-02-14T09:11:18;13.90;95.40
12622;DHT22;6376;48.182;-1.644;2024-02-14T09:13:44;13.90;95.40
12622;DHT22;6376;48.182;-1.644;2024-02-14T09:16:13;13.90;95.70
12622;DHT22;6376;48.182;-1.644;2024-02-14T09:18:40;13.90;95.90
12622;DHT22;6376;48.182;-1.644;2024-02-14T09:21:06;13.90;95.70
12622;DHT22;6376;48.182;-1.644;2024-02-14T09:23:32;13.80;95.70
12622;DHT22;6376;48.182;-1.644;2024-02-14T09:25:58;13.80;95.70
12622;DHT22;6376;48.182;-1.644;2024-02-14T09:28:24;13.80;95.90
12622;DHT22;6376;48.182;-1.644;2024-02-14T09:30:50;13.80;95.80
12622;DHT22;6376;48.182;-1.644;2024-02-14T09:33:16;13.80;95.80
12622;DHT22;6376;48.182;-1.644;2024-02-14T09:35:42;13.90;95.70
12622;DHT22;6376;48.182;-1.644;2024-02-14T09:38:11;13.90;95.50
12622;DHT22;6376;48.182;-1.644;2024-02-14T09:40:41;13.90;95.40
12622;DHT22;6376;48.182;-1.644;2024-02-14T09:43:28;13.90;95.30
12622;DHT22;6376;48.182;-1.644;2024-02-14T09:45:58;13.90;95.10
12622;DHT22;6376;48.182;-1.644;2024-02-14T09:48:23;13.90;95.40
12622;DHT22;6376;48.182;-1.644;2024-02-14T09:50:52;13.90;95.30
12622;DHT22;6376;48.182;-1.644;2024-02-14T09:53:19;13.90;95.40
12622;DHT22;6376;48.182;-1.644;2024-02-14T09:55:50;13.90;95.20
12622;DHT22;6376;48.182;-1.644;2024-02-14T09:58:17;13.90;95.10
12622;DHT22;6376;48.182;-1.644;2024-02-14T10:00:42;13.90;95.00
12622;DHT22;6376;48.182;-1.644;2024-02-14T10:03:08;13.90;94.70
12622;DHT22;6376;48.182;-1.644;2024-02-14T10:05:34;14.00;94.30
12622;DHT22;6376;48.182;-1.644;2024-02-14T10:07:59;14.10;94.40
12622;DHT22;6376;48.182;-1.644;2024-02-14T10:10:27;14.10;94.10
12622;DHT22;6376;48.182;-1.644;2024-02-14T10:12:54;14.30;94.00
12622;DHT22;6376;48.182;-1.644;2024-02-14T10:15:21;14.30;94.70
12622;DHT22;6376;48.182;-1.644;2024-02-14T10:17:47;14.30;94.00
12622;DHT22;6376;48.182;-1.644;2024-02-14T10:20:17;14.30;94.30
12622;DHT22;6376;48.182;-1.644;2024-02-14T10:22:43;14.20;94.20
12622;DHT22;6376;48.182;-1.644;2024-02-14T10:25:09;14.20;94.80
12622;DHT22;6376;48.182;-1.644;2024-02-14T10:27:39;14.10;94.90
12622;DHT22;6376;48.182;-1.644;2024-02-14T10:30:06;14.10;95.10
12622;DHT22;6376;48.182;-1.644;2024-02-14T10:32:39;14.10;94.70
12622;DHT22;6376;48.182;-1.644;2024-02-14T10:35:13;14.10;94.80
12622;DHT22;6376;48.182;-1.644;2024-02-14T10:37:39;14.10;95.20
12622;DHT22;6376;48.182;-1.644;2024-02-14T10:40:05;14.10;95.30
12622;DHT22;6376;48.182;-1.644;2024-02-14T10:42:32;14.10;94.80
12622;DHT22;6376;48.182;-1.644;2024-02-14T10:44:59;14.10;95.30
12622;DHT22;6376;48.182;-1.644;2024-02-14T10:47:32;14.10;95.60
12622;DHT22;6376;48.182;-1.644;2024-02-14T10:50:04;14.10;95.30
12622;DHT22;6376;48.182;-1.644;2024-02-14T10:52:34;14.10;95.10
12622;DHT22;6376;48.182;-1.644;2024-02-14T10:55:05;14.10;95.10
12622;DHT22;6376;48.182;-1.644;2024-02-14T10:57:31;14.10;94.60
12622;DHT22;6376;48.182;-1.644;2024-02-14T10:59:59;14.10;94.40
12622;DHT22;6376;48.182;-1.644;2024-02-14T11:02:26;14.20;94.60
12622;DHT22;6376;48.182;-1.644;2024-02-14T11:04:56;14.10;95.00
12622;DHT22;6376;48.182;-1.644;2024-02-14T11:07:21;14.10;94.70
12622;DHT22;6376;48.182;-1.644;2024-02-14T11:10:06;14.10;94.70
12622;DHT22;6376;48.182;-1.644;2024-02-14T11:12:36;14.20;94.70
12622;DHT22;6376;48.182;-1.644;2024-02-14T11:17:39;14.20;94.90
12622;DHT22;6376;48.182;-1.644;2024-02-14T11:20:17;14.20;95.00
12622;DHT22;6376;48.182;-1.644;2024-02-14T11:22:57;14.20;94.90
12622;DHT22;6376;48.182;-1.644;2024-02-14T11:25:28;14.20;94.80
12622;DHT22;6376;48.182;-1.644;2024-02-14T11:27:55;14.30;95.30
12622;DHT22;6376;48.182;-1.644;2024-02-14T11:30:33;14.30;94.70
12622;DHT22;6376;48.182;-1.644;2024-02-14T11:35:43;14.40;95.10
12622;DHT22;6376;48.182;-1.644;2024-02-14T11:38:09;14.40;95.10
12622;DHT22;6376;48.182;-1.644;2024-02-14T11:40:36;14.40;95.20
12622;DHT22;6376;48.182;-1.644;2024-02-14T11:43:04;14.40;95.00
12622;DHT22;6376;48.182;-1.644;2024-02-14T11:45:30;14.40;94.80
12622;DHT22;6376;48.182;-1.644;2024-02-14T11:47:56;14.40;95.00
12622;DHT22;6376;48.182;-1.644;2024-02-14T11:50:22;14.30;95.10
12622;DHT22;6376;48.182;-1.644;2024-02-14T11:52:47;14.30;94.80
12622;DHT22;6376;48.182;-1.644;2024-02-14T11:55:13;14.30;95.10
12622;DHT22;6376;48.182;-1.644;2024-02-14T11:57:42;14.30;95.30
12622;DHT22;6376;48.182;-1.644;2024-02-14T12:00:08;14.30;95.60
12622;DHT22;6376;48.182;-1.644;2024-02-14T12:02:34;14.30;94.80
12622;DHT22;6376;48.182;-1.644;2024-02-14T12:05:01;14.30;95.10
12622;DHT22;6376;48.182;-1.644;2024-02-14T12:07:30;14.30;94.40
12622;DHT22;6376;48.182;-1.644;2024-02-14T12:09:56;14.30;94.80
12622;DHT22;6376;48.182;-1.644;2024-02-14T12:12:22;14.20;94.40
12622;DHT22;6376;48.182;-1.644;2024-02-14T12:14:52;14.30;94.50
12622;DHT22;6376;48.182;-1.644;2024-02-14T12:17:17;14.30;94.10
12622;DHT22;6376;48.182;-1.644;2024-02-14T12:19:47;14.30;94.10
12622;DHT22;6376;48.182;-1.644;2024-02-14T12:22:15;14.30;94.20
12622;DHT22;6376;48.182;-1.644;2024-02-14T12:24:46;14.30;94.70
12622;DHT22;6376;48.182;-1.644;2024-02-14T12:27:17;14.30;94.60
12622;DHT22;6376;48.182;-1.644;2024-02-14T12:29:46;14.30;94.80
12622;DHT22;6376;48.182;-1.644;2024-02-14T12:32:11;14.30;94.80
12622;DHT22;6376;48.182;-1.644;2024-02-14T12:34:44;14.30;95.00
12622;DHT22;6376;48.182;-1.644;2024-02-14T12:37:10;14.30;95.10
12622;DHT22;6376;48.182;-1.644;2024-02-14T12:39:37;14.30;95.30
12622;DHT22;6376;48.182;-1.644;2024-02-14T12:42:03;14.30;95.20
12622;DHT22;6376;48.182;-1.644;2024-02-14T12:44:30;14.30;95.20
12622;DHT22;6376;48.182;-1.644;2024-02-14T12:46:56;14.30;95.20
12622;DHT22;6376;48.182;-1.644;2024-02-14T12:49:22;14.30;95.10
12622;DHT22;6376;48.182;-1.644;2024-02-14T12:51:48;14.50;95.40
12622;DHT22;6376;48.182;-1.644;2024-02-14T12:54:14;14.30;94.50
12622;DHT22;6376;48.182;-1.644;2024-02-14T12:56:40;14.30;95.10
12622;DHT22;6376;48.182;-1.644;2024-02-14T12:59:06;14.40;94.90
12622;DHT22;6376;48.182;-1.644;2024-02-14T13:01:32;14.40;94.80
12622;DHT22;6376;48.182;-1.644;2024-02-14T13:03:58;14.40;95.10
12622;DHT22;6376;48.182;-1.644;2024-02-14T13:06:25;14.40;95.40
12622;DHT22;6376;48.182;-1.644;2024-02-14T13:08:51;14.40;95.10
12622;DHT22;6376;48.182;-1.644;2024-02-14T13:11:16;14.40;95.30
12622;DHT22;6376;48.182;-1.644;2024-02-14T13:13:44;14.40;95.30
12622;DHT22;6376;48.182;-1.644;2024-02-14T13:16:10;14.40;95.00
12622;DHT22;6376;48.182;-1.644;2024-02-14T13:18:36;14.40;95.40
12622;DHT22;6376;48.182;-1.644;2024-02-14T13:21:02;14.40;95.10
12622;DHT22;6376;48.182;-1.644;2024-02-14T13:23:27;14.40;94.90
12622;DHT22;6376;48.182;-1.644;2024-02-14T13:25:53;14.40;95.10
12622;DHT22;6376;48.182;-1.644;2024-02-14T13:28:19;14.40;95.00
12622;DHT22;6376;48.182;-1.644;2024-02-14T13:30:45;14.40;95.00
12622;DHT22;6376;48.182;-1.644;2024-02-14T13:33:15;14.40;95.10
12622;DHT22;6376;48.182;-1.644;2024-02-14T13:35:40;14.40;95.00
12622;DHT22;6376;48.182;-1.644;2024-02-14T13:38:06;14.40;95.00
12622;DHT22;6376;48.182;-1.644;2024-02-14T13:40:32;14.40;95.00
12622;DHT22;6376;48.182;-1.644;2024-02-14T13:42:58;14.40;95.10
12622;DHT22;6376;48.182;-1.644;2024-02-14T13:45:24;14.40;95.00
12622;DHT22;6376;48.182;-1.644;2024-02-14T13:47:51;14.50;94.90
12622;DHT22;6376;48.182;-1.644;2024-02-14T13:50:18;14.40;94.60
12622;DHT22;6376;48.182;-1.644;2024-02-14T13:52:43;14.40;94.80
12622;DHT22;6376;48.182;-1.644;2024-02-14T13:55:10;14.40;94.70
12622;DHT22;6376;48.182;-1.644;2024-02-14T13:57:37;14.40;95.10
12622;DHT22;6376;48.182;-1.644;2024-02-14T14:00:07;14.40;95.00
12622;DHT22;6376;48.182;-1.644;2024-02-14T14:02:37;14.40;94.80
12622;DHT22;6376;48.182;-1.644;2024-02-14T14:05:07;14.40;94.90
12622;DHT22;6376;48.182;-1.644;2024-02-14T14:07:35;14.40;95.20
12622;DHT22;6376;48.182;-1.644;2024-02-14T14:10:02;14.40;94.80
12622;DHT22;6376;48.182;-1.644;2024-02-14T14:12:28;14.40;94.80
12622;DHT22;6376;48.182;-1.644;2024-02-14T14:14:54;14.40;94.80
12622;DHT22;6376;48.182;-1.644;2024-02-14T14:17:19;14.50;94.80
12622;DHT22;6376;48.182;-1.644;2024-02-14T14:19:45;14.50;95.00
12622;DHT22;6376;48.182;-1.644;2024-02-14T14:22:11;14.50;95.00
12622;DHT22;6376;48.182;-1.644;2024-02-14T14:24:36;14.50;95.30
12622;DHT22;6376;48.182;-1.644;2024-02-14T14:27:02;14.40;95.20
12622;DHT22;6376;48.182;-1.644;2024-02-14T14:29:28;14.40;95.00
12622;DHT22;6376;48.182;-1.644;2024-02-14T14:31:54;14.40;95.10
12622;DHT22;6376;48.182;-1.644;2024-02-14T14:34:20;14.40;94.90
12622;DHT22;6376;48.182;-1.644;2024-02-14T14:36:45;14.50;94.80
12622;DHT22;6376;48.182;-1.644;2024-02-14T14:39:11;14.50;94.80
12622;DHT22;6376;48.182;-1.644;2024-02-14T14:41:37;14.40;94.70
12622;DHT22;6376;48.182;-1.644;2024-02-14T14:44:04;14.40;94.90
12622;DHT22;6376;48.182;-1.644;2024-02-14T14:46:29;14.40;95.10
12622;DHT22;6376;48.182;-1.644;2024-02-14T14:48:57;14.50;95.00
12622;DHT22;6376;48.182;-1.644;2024-02-14T14:51:23;14.50;94.70
12622;DHT22;6376;48.182;-1.644;2024-02-14T14:53:49;14.40;94.70
12622;DHT22;6376;48.182;-1.644;2024-02-14T14:56:15;14.50;95.00
12622;DHT22;6376;48.182;-1.644;2024-02-14T14:58:41;14.40;94.80
12622;DHT22;6376;48.182;-1.644;2024-02-14T15:01:08;14.40;94.80
12622;DHT22;6376;48.182;-1.644;2024-02-14T15:03:34;14.40;94.50
12622;DHT22;6376;48.182;-1.644;2024-02-14T15:06:00;14.40;94.70
12622;DHT22;6376;48.182;-1.644;2024-02-14T15:08:37;14.40;94.40
12622;DHT22;6376;48.182;-1.644;2024-02-14T15:11:02;14.40;94.70
12622;DHT22;6376;48.182;-1.644;2024-02-14T15:13:29;14.40;95.00
12622;DHT22;6376;48.182;-1.644;2024-02-14T15:15:55;14.40;94.80
12622;DHT22;6376;48.182;-1.644;2024-02-14T15:18:23;14.40;95.00
12622;DHT22;6376;48.182;-1.644;2024-02-14T15:20:48;14.40;94.70
12622;DHT22;6376;48.182;-1.644;2024-02-14T15:23:14;14.40;94.70
12622;DHT22;6376;48.182;-1.644;2024-02-14T15:25:39;14.40;94.90
12622;DHT22;6376;48.182;-1.644;2024-02-14T15:28:09;14.40;94.90
12622;DHT22;6376;48.182;-1.644;2024-02-14T15:30:39;14.50;95.00
12622;DHT22;6376;48.182;-1.644;2024-02-14T15:33:23;14.50;94.80